sensor_id;sensor_type;location;lat;lon;timestamp;P1;durP1;ratioP1;P2;durP2;ratioP2
67805;SDS011;54603;45.638;11.714;2024-03-17T00:01:55;11.20;;;9.10;;
67805;SDS011;54603;45.638;11.714;2024-03-17T00:04:20;13.50;;;9.10;;
67805;SDS011;54603;45.638;11.714;2024-03-17T00:06:47;11.80;;;9.90;;
67805;SDS011;54603;45.638;11.714;2024-03-17T00:09:12;12.40;;;9.90;;
67805;SDS011;54603;45.638;11.714;2024-03-17T00:11:38;11.60;;;9.10;;
67805;SDS011;54603;45.638;11.714;2024-03-17T00:14:05;10.50;;;9.20;;
67805;SDS011;54603;45.638;11.714;2024-03-17T00:16:30;11.80;;;9.10;;
67805;SDS011;54603;45.638;11.714;2024-03-17T00:18:56;13.70;;;9.20;;
67805;SDS011;54603;45.638;11.714;2024-03-17T00:21:22;10.40;;;9.30;;
67805;SDS011;54603;45.638;11.714;2024-03-17T00:23:48;12.50;;;9.10;;
67805;SDS011;54603;45.638;11.714;2024-03-17T00:26:15;12.30;;;9.10;;
67805;SDS011;54603;45.638;11.714;2024-03-17T00:28:41;11.70;;;8.80;;
67805;SDS011;54603;45.638;11.714;2024-03-17T00:31:08;11.00;;;8.80;;
67805;SDS011;54603;45.638;11.714;2024-03-17T00:33:36;10.50;;;8.70;;
67805;SDS011;54603;45.638;11.714;2024-03-17T00:36:01;12.00;;;8.70;;
67805;SDS011;54603;45.638;11.714;2024-03-17T00:38:27;10.80;;;9.10;;
67805;SDS011;54603;45.638;11.714;2024-03-17T00:40:53;11.30;;;9.50;;
67805;SDS011;54603;45.638;11.714;2024-03-17T00:43:19;10.80;;;9.20;;
67805;SDS011;54603;45.638;11.714;2024-03-17T00:45:51;10.40;;;8.70;;
67805;SDS011;54603;45.638;11.714;2024-03-17T00:48:17;11.80;;;9.20;;
67805;SDS011;54603;45.638;11.714;2024-03-17T00:50:43;10.50;;;9.20;;
67805;SDS011;54603;45.638;11.714;2024-03-17T00:53:13;12.50;;;9.20;;
67805;SDS011;54603;45.638;11.714;2024-03-17T00:55:39;10.90;;;9.10;;
67805;SDS011;54603;45.638;11.714;2024-03-17T00:58:05;11.10;;;9.00;;
67805;SDS011;54603;45.638;11.714;2024-03-17T01:00:31;10.50;;;8.60;;
67805;SDS011;54603;45.638;11.714;2024-03-17T01:02:58;10.70;;;8.30;;
67805;SDS011;54603;45.638;11.714;2024-03-17T01:05:24;9.40;;;8.50;;
67805;SDS011;54603;45.638;11.714;2024-03-17T01:07:50;10.30;;;9.00;;
67805;SDS011;54603;45.638;11.714;2024-03-17T01:10:15;10.30;;;8.90;;
67805;SDS011;54603;45.638;11.714;2024-03-17T01:12:41;11.70;;;8.80;;
67805;SDS011;54603;45.638;11.714;2024-03-17T01:15:07;9.90;;;8.80;;
67805;SDS011;54603;45.638;11.714;2024-03-17T01:17:33;9.30;;;8.30;;
67805;SDS011;54603;45.638;11.714;2024-03-17T01:19:59;9.80;;;8.70;;
67805;SDS011;54603;45.638;11.714;2024-03-17T01:22:25;10.90;;;9.10;;
67805;SDS011;54603;45.638;11.714;2024-03-17T01:24:51;12.60;;;9.40;;
67805;SDS011;54603;45.638;11.714;2024-03-17T01:27:16;10.70;;;8.70;;
67805;SDS011;54603;45.638;11.714;2024-03-17T01:29:42;11.10;;;9.20;;
67805;SDS011;54603;45.638;11.714;2024-03-17T01:32:09;9.90;;;8.80;;
67805;SDS011;54603;45.638;11.714;2024-03-17T01:34:37;13.60;;;8.80;;
67805;SDS011;54603;45.638;11.714;2024-03-17T01:37:03;10.40;;;9.30;;
67805;SDS011;54603;45.638;11.714;2024-03-17T01:39:30;11.90;;;9.30;;
67805;SDS011;54603;45.638;11.714;2024-03-17T01:41:58;11.30;;;8.30;;
67805;SDS011;54603;45.638;11.714;2024-03-17T01:44:28;11.80;;;9.30;;
67805;SDS011;54603;45.638;11.714;2024-03-17T01:46:56;10.10;;;9.10;;
67805;SDS011;54603;45.638;11.714;2024-03-17T01:49:22;9.50;;;8.60;;
67805;SDS011;54603;45.638;11.714;2024-03-17T01:51:50;11.70;;;9.50;;
67805;SDS011;54603;45.638;11.714;2024-03-17T01:54:16;10.50;;;9.50;;
67805;SDS011;54603;45.638;11.714;2024-03-17T01:56:42;11.90;;;9.10;;
67805;SDS011;54603;45.638;11.714;2024-03-17T01:59:09;10.90;;;9.60;;
67805;SDS011;54603;45.638;11.714;2024-03-17T02:01:38;11.20;;;9.20;;
67805;SDS011;54603;45.638;11.714;2024-03-17T02:04:05;11.50;;;8.50;;
67805;SDS011;54603;45.638;11.714;2024-03-17T02:06:32;9.60;;;8.50;;
67805;SDS011;54603;45.638;11.714;2024-03-17T02:08:58;12.20;;;9.50;;
67805;SDS011;54603;45.638;11.714;2024-03-17T02:11:28;11.70;;;9.40;;
67805;SDS011;54603;45.638;11.714;2024-03-17T02:13:56;10.90;;;9.60;;
67805;SDS011;54603;45.638;11.714;2024-03-17T02:16:22;11.30;;;9.40;;
67805;SDS011;54603;45.638;11.714;2024-03-17T02:18:49;11.80;;;8.80;;
67805;SDS011;54603;45.638;11.714;2024-03-17T02:21:15;9.90;;;8.70;;
67805;SDS011;54603;45.638;11.714;2024-03-17T02:23:42;9.70;;;8.70;;
67805;SDS011;54603;45.638;11.714;2024-03-17T02:26:08;9.90;;;8.90;;
67805;SDS011;54603;45.638;11.714;2024-03-17T02:28:41;12.10;;;9.20;;
67805;SDS011;54603;45.638;11.714;2024-03-17T02:31:10;11.80;;;9.70;;
67805;SDS011;54603;45.638;11.714;2024-03-17T02:33:37;10.30;;;9.20;;
67805;SDS011;54603;45.638;11.714;2024-03-17T02:36:06;10.30;;;8.90;;
67805;SDS011;54603;45.638;11.714;2024-03-17T02:38:36;10.80;;;9.70;;
67805;SDS011;54603;45.638;11.714;2024-03-17T02:41:21;10.50;;;9.10;;
67805;SDS011;54603;45.638;11.714;2024-03-17T02:43:47;11.40;;;9.60;;
67805;SDS011;54603;45.638;11.714;2024-03-17T02:46:15;10.00;;;9.00;;
67805;SDS011;54603;45.638;11.714;2024-03-17T02:48:42;12.30;;;9.20;;
67805;SDS011;54603;45.638;11.714;2024-03-17T02:51:15;12.40;;;10.80;;
67805;SDS011;54603;45.638;11.714;2024-03-17T02:53:43;12.70;;;10.40;;
67805;SDS011;54603;45.638;11.714;2024-03-17T02:56:13;14.20;;;12.40;;
67805;SDS011;54603;45.638;11.714;2024-03-17T02:58:43;13.00;;;11.30;;
67805;SDS011;54603;45.638;11.714;2024-03-17T03:01:10;14.60;;;11.90;;
67805;SDS011;54603;45.638;11.714;2024-03-17T03:03:36;14.10;;;11.40;;
67805;SDS011;54603;45.638;11.714;2024-03-17T03:06:02;17.00;;;13.20;;
67805;SDS011;54603;45.638;11.714;2024-03-17T03:08:35;13.60;;;11.10;;
67805;SDS011;54603;45.638;11.714;2024-03-17T03:11:10;10.60;;;9.20;;
67805;SDS011;54603;45.638;11.714;2024-03-17T03:13:40;13.20;;;11.80;;
67805;SDS011;54603;45.638;11.714;2024-03-17T03:16:10;11.60;;;10.40;;
67805;SDS011;54603;45.638;11.714;2024-03-17T03:18:40;16.90;;;13.80;;
67805;SDS011;54603;45.638;11.714;2024-03-17T03:21:06;10.70;;;9.30;;
67805;SDS011;54603;45.638;11.714;2024-03-17T03:23:32;13.20;;;10.40;;
67805;SDS011;54603;45.638;11.714;2024-03-17T03:25:59;13.70;;;12.30;;
67805;SDS011;54603;45.638;11.714;2024-03-17T03:28:29;13.20;;;10.90;;
67805;SDS011;54603;45.638;11.714;2024-03-17T03:31:01;12.40;;;10.50;;
67805;SDS011;54603;45.638;11.714;2024-03-17T03:33:27;11.40;;;10.00;;
67805;SDS011;54603;45.638;11.714;2024-03-17T03:35:53;12.50;;;11.20;;
67805;SDS011;54603;45.638;11.714;2024-03-17T03:38:21;13.70;;;12.10;;
67805;SDS011;54603;45.638;11.714;2024-03-17T03:40:50;14.80;;;11.50;;
67805;SDS011;54603;45.638;11.714;2024-03-17T03:43:17;14.50;;;12.60;;
67805;SDS011;54603;45.638;11.714;2024-03-17T03:45:43;13.50;;;12.00;;
67805;SDS011;54603;45.638;11.714;2024-03-17T03:48:09;13.30;;;11.50;;
67805;SDS011;54603;45.638;11.714;2024-03-17T03:50:35;13.50;;;11.00;;
67805;SDS011;54603;45.638;11.714;2024-03-17T03:53:02;12.20;;;10.70;;
67805;SDS011;54603;45.638;11.714;2024-03-17T03:55:27;12.10;;;10.50;;
67805;SDS011;54603;45.638;11.714;2024-03-17T03:57:54;13.20;;;11.80;;
67805;SDS011;54603;45.638;11.714;2024-03-17T04:00:20;16.20;;;13.80;;
67805;SDS011;54603;45.638;11.714;2024-03-17T04:02:48;13.60;;;11.70;;
67805;SDS011;54603;45.638;11.714;2024-03-17T04:05:15;14.20;;;11.90;;
67805;SDS011;54603;45.638;11.714;2024-03-17T04:07:41;12.30;;;10.90;;
67805;SDS011;54603;45.638;11.714;2024-03-17T04:10:09;11.00;;;9.70;;
67805;SDS011;54603;45.638;11.714;2024-03-17T04:12:36;11.10;;;9.60;;
67805;SDS011;54603;45.638;11.714;2024-03-17T04:15:02;9.60;;;8.60;;
67805;SDS011;54603;45.638;11.714;2024-03-17T04:17:28;10.40;;;9.30;;
67805;SDS011;54603;45.638;11.714;2024-03-17T04:19:54;10.60;;;9.50;;
67805;SDS011;54603;45.638;11.714;2024-03-17T04:22:21;10.40;;;9.30;;
67805;SDS011;54603;45.638;11.714;2024-03-17T04:24:48;10.60;;;8.80;;
67805;SDS011;54603;45.638;11.714;2024-03-17T04:27:23;10.80;;;9.70;;
67805;SDS011;54603;45.638;11.714;2024-03-17T04:29:50;11.60;;;10.10;;
67805;SDS011;54603;45.638;11.714;2024-03-17T04:32:17;12.00;;;10.10;;
67805;SDS011;54603;45.638;11.714;2024-03-17T04:34:42;13.00;;;11.20;;
67805;SDS011;54603;45.638;11.714;2024-03-17T04:37:09;10.80;;;9.70;;
67805;SDS011;54603;45.638;11.714;2024-03-17T04:39:40;12.60;;;10.30;;
67805;SDS011;54603;45.638;11.714;2024-03-17T04:42:09;10.70;;;9.60;;
67805;SDS011;54603;45.638;11.714;2024-03-17T04:44:35;10.80;;;9.00;;
67805;SDS011;54603;45.638;11.714;2024-03-17T04:47:01;12.50;;;9.70;;
67805;SDS011;54603;45.638;11.714;2024-03-17T04:49:42;10.70;;;9.20;;
67805;SDS011;54603;45.638;11.714;2024-03-17T04:52:10;9.20;;;8.30;;
67805;SDS011;54603;45.638;11.714;2024-03-17T04:54:38;11.90;;;9.50;;
67805;SDS011;54603;45.638;11.714;2024-03-17T04:57:04;10.90;;;9.70;;
67805;SDS011;54603;45.638;11.714;2024-03-17T04:59:33;11.70;;;9.60;;
67805;SDS011;54603;45.638;11.714;2024-03-17T05:01:59;10.10;;;9.00;;
67805;SDS011;54603;45.638;11.714;2024-03-17T05:04:25;10.80;;;9.30;;
67805;SDS011;54603;45.638;11.714;2024-03-17T05:06:50;12.10;;;10.60;;
67805;SDS011;54603;45.638;11.714;2024-03-17T05:09:17;12.60;;;11.00;;
67805;SDS011;54603;45.638;11.714;2024-03-17T05:11:43;11.60;;;9.90;;
67805;SDS011;54603;45.638;11.714;2024-03-17T05:14:10;10.80;;;9.30;;
67805;SDS011;54603;45.638;11.714;2024-03-17T05:16:38;13.30;;;11.60;;
67805;SDS011;54603;45.638;11.714;2024-03-17T05:19:05;12.30;;;10.90;;
67805;SDS011;54603;45.638;11.714;2024-03-17T05:21:37;10.80;;;9.70;;
67805;SDS011;54603;45.638;11.714;2024-03-17T05:24:03;10.80;;;9.30;;
67805;SDS011;54603;45.638;11.714;2024-03-17T05:26:29;12.10;;;9.70;;
67805;SDS011;54603;45.638;11.714;2024-03-17T05:28:56;13.60;;;11.20;;
67805;SDS011;54603;45.638;11.714;2024-03-17T05:31:23;10.90;;;9.60;;
67805;SDS011;54603;45.638;11.714;2024-03-17T05:33:49;12.10;;;10.40;;
67805;SDS011;54603;45.638;11.714;2024-03-17T05:36:15;10.50;;;9.40;;
67805;SDS011;54603;45.638;11.714;2024-03-17T05:38:43;11.40;;;9.90;;
67805;SDS011;54603;45.638;11.714;2024-03-17T05:41:09;12.60;;;10.90;;
67805;SDS011;54603;45.638;11.714;2024-03-17T05:43:37;13.60;;;10.60;;
67805;SDS011;54603;45.638;11.714;2024-03-17T05:46:05;11.60;;;10.40;;
67805;SDS011;54603;45.638;11.714;2024-03-17T05:48:35;13.10;;;10.90;;
67805;SDS011;54603;45.638;11.714;2024-03-17T05:51:09;15.20;;;11.90;;
67805;SDS011;54603;45.638;11.714;2024-03-17T05:53:39;11.50;;;10.30;;
67805;SDS011;54603;45.638;11.714;2024-03-17T05:56:11;15.20;;;12.00;;
67805;SDS011;54603;45.638;11.714;2024-03-17T05:58:38;10.70;;;9.40;;
67805;SDS011;54603;45.638;11.714;2024-03-17T06:01:05;14.70;;;11.10;;
67805;SDS011;54603;45.638;11.714;2024-03-17T06:03:34;13.80;;;11.30;;
67805;SDS011;54603;45.638;11.714;2024-03-17T06:06:05;14.50;;;11.10;;
67805;SDS011;54603;45.638;11.714;2024-03-17T06:08:38;10.80;;;9.70;;
67805;SDS011;54603;45.638;11.714;2024-03-17T06:11:07;13.10;;;11.70;;
67805;SDS011;54603;45.638;11.714;2024-03-17T06:13:33;14.00;;;11.80;;
67805;SDS011;54603;45.638;11.714;2024-03-17T06:16:02;14.10;;;12.60;;
67805;SDS011;54603;45.638;11.714;2024-03-17T06:18:28;17.20;;;13.90;;
67805;SDS011;54603;45.638;11.714;2024-03-17T06:20:54;15.60;;;13.00;;
67805;SDS011;54603;45.638;11.714;2024-03-17T06:23:24;10.70;;;9.00;;
67805;SDS011;54603;45.638;11.714;2024-03-17T06:25:50;10.50;;;9.40;;
67805;SDS011;54603;45.638;11.714;2024-03-17T06:28:17;17.10;;;15.30;;
67805;SDS011;54603;45.638;11.714;2024-03-17T06:30:43;14.90;;;12.20;;
67805;SDS011;54603;45.638;11.714;2024-03-17T06:33:13;12.20;;;10.10;;
67805;SDS011;54603;45.638;11.714;2024-03-17T06:35:39;11.70;;;9.60;;
67805;SDS011;54603;45.638;11.714;2024-03-17T06:38:06;11.00;;;9.60;;
67805;SDS011;54603;45.638;11.714;2024-03-17T06:40:36;14.70;;;12.50;;
67805;SDS011;54603;45.638;11.714;2024-03-17T06:43:02;14.30;;;12.80;;
67805;SDS011;54603;45.638;11.714;2024-03-17T06:45:28;16.90;;;14.60;;
67805;SDS011;54603;45.638;11.714;2024-03-17T06:47:54;16.90;;;14.50;;
67805;SDS011;54603;45.638;11.714;2024-03-17T06:50:21;18.10;;;14.60;;
67805;SDS011;54603;45.638;11.714;2024-03-17T06:52:47;14.90;;;12.80;;
67805;SDS011;54603;45.638;11.714;2024-03-17T06:55:13;15.20;;;12.10;;
67805;SDS011;54603;45.638;11.714;2024-03-17T06:57:41;18.40;;;15.00;;
67805;SDS011;54603;45.638;11.714;2024-03-17T07:00:12;21.20;;;14.70;;
67805;SDS011;54603;45.638;11.714;2024-03-17T07:02:43;16.80;;;14.10;;
67805;SDS011;54603;45.638;11.714;2024-03-17T07:05:13;17.40;;;13.50;;
67805;SDS011;54603;45.638;11.714;2024-03-17T07:07:43;16.70;;;13.10;;
67805;SDS011;54603;45.638;11.714;2024-03-17T07:10:10;17.00;;;14.10;;
67805;SDS011;54603;45.638;11.714;2024-03-17T07:12:38;16.40;;;14.40;;
67805;SDS011;54603;45.638;11.714;2024-03-17T07:15:05;16.80;;;13.50;;
67805;SDS011;54603;45.638;11.714;2024-03-17T07:17:31;18.70;;;15.40;;
67805;SDS011;54603;45.638;11.714;2024-03-17T07:19:57;23.30;;;17.70;;
67805;SDS011;54603;45.638;11.714;2024-03-17T07:22:23;21.50;;;17.10;;
67805;SDS011;54603;45.638;11.714;2024-03-17T07:24:52;16.50;;;13.40;;
67805;SDS011;54603;45.638;11.714;2024-03-17T07:27:22;19.50;;;16.40;;
67805;SDS011;54603;45.638;11.714;2024-03-17T07:29:49;18.30;;;15.20;;
67805;SDS011;54603;45.638;11.714;2024-03-17T07:32:16;13.40;;;12.10;;
67805;SDS011;54603;45.638;11.714;2024-03-17T07:34:42;15.70;;;13.90;;
67805;SDS011;54603;45.638;11.714;2024-03-17T07:37:08;19.10;;;16.20;;
67805;SDS011;54603;45.638;11.714;2024-03-17T07:39:34;21.40;;;18.40;;
67805;SDS011;54603;45.638;11.714;2024-03-17T07:42:00;17.00;;;14.10;;
67805;SDS011;54603;45.638;11.714;2024-03-17T07:44:28;20.10;;;16.80;;
67805;SDS011;54603;45.638;11.714;2024-03-17T07:46:58;17.00;;;14.40;;
67805;SDS011;54603;45.638;11.714;2024-03-17T07:49:26;23.20;;;18.20;;
67805;SDS011;54603;45.638;11.714;2024-03-17T07:51:52;18.50;;;15.70;;
67805;SDS011;54603;45.638;11.714;2024-03-17T07:54:17;23.10;;;19.10;;
67805;SDS011;54603;45.638;11.714;2024-03-17T07:56:45;19.70;;;16.90;;
67805;SDS011;54603;45.638;11.714;2024-03-17T07:59:12;27.50;;;22.30;;
67805;SDS011;54603;45.638;11.714;2024-03-17T08:01:41;25.40;;;19.80;;
67805;SDS011;54603;45.638;11.714;2024-03-17T08:04:07;27.50;;;20.10;;
67805;SDS011;54603;45.638;11.714;2024-03-17T08:06:33;23.80;;;18.70;;
67805;SDS011;54603;45.638;11.714;2024-03-17T08:08:59;27.30;;;21.50;;
67805;SDS011;54603;45.638;11.714;2024-03-17T08:11:27;23.00;;;18.30;;
67805;SDS011;54603;45.638;11.714;2024-03-17T08:13:53;22.30;;;18.30;;
67805;SDS011;54603;45.638;11.714;2024-03-17T08:16:21;19.60;;;16.00;;
67805;SDS011;54603;45.638;11.714;2024-03-17T08:18:47;22.10;;;17.70;;
67805;SDS011;54603;45.638;11.714;2024-03-17T08:21:17;20.70;;;17.20;;
67805;SDS011;54603;45.638;11.714;2024-03-17T08:23:45;23.00;;;17.60;;
67805;SDS011;54603;45.638;11.714;2024-03-17T08:26:14;19.60;;;16.00;;
67805;SDS011;54603;45.638;11.714;2024-03-17T08:28:45;11.80;;;10.00;;
67805;SDS011;54603;45.638;11.714;2024-03-17T08:31:12;26.90;;;20.70;;
67805;SDS011;54603;45.638;11.714;2024-03-17T08:33:45;24.30;;;19.60;;
67805;SDS011;54603;45.638;11.714;2024-03-17T08:36:16;21.80;;;18.10;;
67805;SDS011;54603;45.638;11.714;2024-03-17T08:38:44;18.50;;;13.00;;
67805;SDS011;54603;45.638;11.714;2024-03-17T08:41:10;21.80;;;14.40;;
67805;SDS011;54603;45.638;11.714;2024-03-17T08:43:37;20.20;;;15.10;;
67805;SDS011;54603;45.638;11.714;2024-03-17T08:46:10;12.00;;;10.40;;
67805;SDS011;54603;45.638;11.714;2024-03-17T08:48:38;12.50;;;10.30;;
67805;SDS011;54603;45.638;11.714;2024-03-17T08:51:05;21.00;;;14.80;;
67805;SDS011;54603;45.638;11.714;2024-03-17T08:53:32;22.70;;;13.70;;
67805;SDS011;54603;45.638;11.714;2024-03-17T08:55:59;14.10;;;10.70;;
67805;SDS011;54603;45.638;11.714;2024-03-17T08:58:26;17.80;;;10.30;;
67805;SDS011;54603;45.638;11.714;2024-03-17T09:00:52;19.50;;;11.00;;
67805;SDS011;54603;45.638;11.714;2024-03-17T09:03:18;14.40;;;10.80;;
67805;SDS011;54603;45.638;11.714;2024-03-17T09:05:46;14.70;;;10.30;;
67805;SDS011;54603;45.638;11.714;2024-03-17T09:08:23;16.70;;;10.70;;
67805;SDS011;54603;45.638;11.714;2024-03-17T09:10:52;15.20;;;10.00;;
67805;SDS011;54603;45.638;11.714;2024-03-17T09:13:22;13.80;;;10.40;;
67805;SDS011;54603;45.638;11.714;2024-03-17T09:15:53;12.40;;;10.40;;
67805;SDS011;54603;45.638;11.714;2024-03-17T09:18:32;13.30;;;10.00;;
67805;SDS011;54603;45.638;11.714;2024-03-17T09:21:02;13.60;;;10.20;;
67805;SDS011;54603;45.638;11.714;2024-03-17T09:23:30;13.00;;;10.70;;
67805;SDS011;54603;45.638;11.714;2024-03-17T09:26:01;13.60;;;10.80;;
67805;SDS011;54603;45.638;11.714;2024-03-17T09:28:29;12.50;;;11.00;;
67805;SDS011;54603;45.638;11.714;2024-03-17T09:30:57;15.00;;;11.50;;
67805;SDS011;54603;45.638;11.714;2024-03-17T09:33:25;15.00;;;11.60;;
67805;SDS011;54603;45.638;11.714;2024-03-17T09:36:00;16.80;;;12.30;;
67805;SDS011;54603;45.638;11.714;2024-03-17T09:38:31;16.80;;;14.30;;
67805;SDS011;54603;45.638;11.714;2024-03-17T09:40:59;29.60;;;20.20;;
67805;SDS011;54603;45.638;11.714;2024-03-17T09:43:27;18.60;;;13.70;;
67805;SDS011;54603;45.638;11.714;2024-03-17T09:45:55;26.70;;;16.70;;
67805;SDS011;54603;45.638;11.714;2024-03-17T09:48:27;19.60;;;16.50;;
67805;SDS011;54603;45.638;11.714;2024-03-17T09:50:56;19.70;;;15.60;;
67805;SDS011;54603;45.638;11.714;2024-03-17T09:53:33;24.70;;;19.20;;
67805;SDS011;54603;45.638;11.714;2024-03-17T09:56:16;29.00;;;21.20;;
67805;SDS011;54603;45.638;11.714;2024-03-17T09:58:49;20.20;;;13.80;;
67805;SDS011;54603;45.638;11.714;2024-03-17T10:01:16;16.70;;;12.70;;
67805;SDS011;54603;45.638;11.714;2024-03-17T10:03:49;20.70;;;13.90;;
67805;SDS011;54603;45.638;11.714;2024-03-17T10:06:23;15.70;;;12.50;;
67805;SDS011;54603;45.638;11.714;2024-03-17T10:08:54;14.70;;;12.30;;
67805;SDS011;54603;45.638;11.714;2024-03-17T10:11:22;16.20;;;13.20;;
67805;SDS011;54603;45.638;11.714;2024-03-17T10:14:02;21.90;;;15.90;;
67805;SDS011;54603;45.638;11.714;2024-03-17T10:16:37;23.60;;;18.00;;
67805;SDS011;54603;45.638;11.714;2024-03-17T10:19:24;19.80;;;13.90;;
67805;SDS011;54603;45.638;11.714;2024-03-17T10:21:58;19.40;;;15.60;;
67805;SDS011;54603;45.638;11.714;2024-03-17T10:24:28;20.50;;;14.50;;
67805;SDS011;54603;45.638;11.714;2024-03-17T10:26:55;25.60;;;20.50;;
67805;SDS011;54603;45.638;11.714;2024-03-17T10:31:59;16.10;;;13.10;;
67805;SDS011;54603;45.638;11.714;2024-03-17T10:34:28;20.30;;;15.10;;
67805;SDS011;54603;45.638;11.714;2024-03-17T10:37:10;20.40;;;14.00;;
67805;SDS011;54603;45.638;11.714;2024-03-17T10:39:41;20.80;;;13.70;;
67805;SDS011;54603;45.638;11.714;2024-03-17T10:42:09;21.00;;;14.20;;
67805;SDS011;54603;45.638;11.714;2024-03-17T10:44:39;16.50;;;14.00;;
67805;SDS011;54603;45.638;11.714;2024-03-17T10:47:07;16.50;;;13.70;;
67805;SDS011;54603;45.638;11.714;2024-03-17T10:49:37;18.10;;;14.50;;
67805;SDS011;54603;45.638;11.714;2024-03-17T10:52:08;19.20;;;14.80;;
67805;SDS011;54603;45.638;11.714;2024-03-17T10:54:47;18.40;;;14.20;;
67805;SDS011;54603;45.638;11.714;2024-03-17T10:57:40;18.20;;;14.60;;
67805;SDS011;54603;45.638;11.714;2024-03-17T11:00:14;25.40;;;15.50;;
67805;SDS011;54603;45.638;11.714;2024-03-17T11:02:52;20.60;;;15.00;;
67805;SDS011;54603;45.638;11.714;2024-03-17T11:05:21;15.50;;;13.50;;
67805;SDS011;54603;45.638;11.714;2024-03-17T11:07:51;21.20;;;15.00;;
67805;SDS011;54603;45.638;11.714;2024-03-17T11:10:23;19.90;;;16.20;;
67805;SDS011;54603;45.638;11.714;2024-03-17T11:12:59;22.30;;;17.60;;
67805;SDS011;54603;45.638;11.714;2024-03-17T11:20:41;21.30;;;16.30;;
67805;SDS011;54603;45.638;11.714;2024-03-17T11:23:09;21.30;;;16.40;;
67805;SDS011;54603;45.638;11.714;2024-03-17T11:28:01;23.10;;;16.60;;
67805;SDS011;54603;45.638;11.714;2024-03-17T11:39:08;30.90;;;20.20;;
67805;SDS011;54603;45.638;11.714;2024-03-17T11:41:47;39.60;;;27.20;;
67805;SDS011;54603;45.638;11.714;2024-03-17T11:49:44;58.80;;;34.10;;
67805;SDS011;54603;45.638;11.714;2024-03-17T11:52:15;82.60;;;33.50;;
67805;SDS011;54603;45.638;11.714;2024-03-17T11:54:46;103.90;;;38.70;;
67805;SDS011;54603;45.638;11.714;2024-03-17T11:57:25;81.60;;;41.80;;
67805;SDS011;54603;45.638;11.714;2024-03-17T11:59:53;118.40;;;44.30;;
67805;SDS011;54603;45.638;11.714;2024-03-17T12:04:56;144.00;;;46.90;;
67805;SDS011;54603;45.638;11.714;2024-03-17T12:07:23;146.00;;;49.70;;
67805;SDS011;54603;45.638;11.714;2024-03-17T12:09:51;120.90;;;46.50;;
67805;SDS011;54603;45.638;11.714;2024-03-17T12:12:22;108.30;;;44.20;;
67805;SDS011;54603;45.638;11.714;2024-03-17T12:14:50;93.20;;;42.80;;
67805;SDS011;54603;45.638;11.714;2024-03-17T12:17:24;114.20;;;44.50;;
67805;SDS011;54603;45.638;11.714;2024-03-17T12:19:50;141.50;;;47.40;;
67805;SDS011;54603;45.638;11.714;2024-03-17T12:22:19;144.60;;;47.50;;
67805;SDS011;54603;45.638;11.714;2024-03-17T12:24:52;142.00;;;47.90;;
67805;SDS011;54603;45.638;11.714;2024-03-17T12:27:25;133.80;;;47.70;;
67805;SDS011;54603;45.638;11.714;2024-03-17T12:29:52;101.30;;;42.90;;
67805;SDS011;54603;45.638;11.714;2024-03-17T12:32:24;109.80;;;42.80;;
67805;SDS011;54603;45.638;11.714;2024-03-17T12:37:21;132.20;;;44.80;;
67805;SDS011;54603;45.638;11.714;2024-03-17T12:39:52;124.90;;;44.30;;
67805;SDS011;54603;45.638;11.714;2024-03-17T12:42:26;132.30;;;44.20;;
67805;SDS011;54603;45.638;11.714;2024-03-17T12:44:57;124.20;;;43.90;;
67805;SDS011;54603;45.638;11.714;2024-03-17T12:47:25;105.00;;;42.30;;
67805;SDS011;54603;45.638;11.714;2024-03-17T12:49:58;88.00;;;41.00;;
67805;SDS011;54603;45.638;11.714;2024-03-17T12:55:03;83.90;;;39.30;;
67805;SDS011;54603;45.638;11.714;2024-03-17T13:00:47;109.50;;;38.60;;
67805;SDS011;54603;45.638;11.714;2024-03-17T13:03:39;105.20;;;38.10;;
67805;SDS011;54603;45.638;11.714;2024-03-17T13:06:08;96.40;;;37.20;;
67805;SDS011;54603;45.638;11.714;2024-03-17T13:08:35;74.10;;;38.30;;
67805;SDS011;54603;45.638;11.714;2024-03-17T13:11:01;99.40;;;38.80;;
67805;SDS011;54603;45.638;11.714;2024-03-17T13:13:29;95.60;;;36.00;;
67805;SDS011;54603;45.638;11.714;2024-03-17T13:15:55;82.10;;;37.50;;
67805;SDS011;54603;45.638;11.714;2024-03-17T13:18:21;76.50;;;38.30;;
67805;SDS011;54603;45.638;11.714;2024-03-17T13:20:47;78.90;;;36.60;;
67805;SDS011;54603;45.638;11.714;2024-03-17T13:23:18;80.20;;;36.40;;
67805;SDS011;54603;45.638;11.714;2024-03-17T13:25:44;80.70;;;37.70;;
67805;SDS011;54603;45.638;11.714;2024-03-17T13:28:11;65.60;;;35.10;;
67805;SDS011;54603;45.638;11.714;2024-03-17T13:30:36;84.30;;;35.60;;
67805;SDS011;54603;45.638;11.714;2024-03-17T13:33:03;87.90;;;34.90;;
67805;SDS011;54603;45.638;11.714;2024-03-17T13:35:37;88.80;;;34.10;;
67805;SDS011;54603;45.638;11.714;2024-03-17T13:38:08;89.60;;;34.00;;
67805;SDS011;54603;45.638;11.714;2024-03-17T13:40:37;91.40;;;33.30;;
67805;SDS011;54603;45.638;11.714;2024-03-17T13:43:04;93.00;;;34.60;;
67805;SDS011;54603;45.638;11.714;2024-03-17T13:45:47;79.90;;;37.30;;
67805;SDS011;54603;45.638;11.714;2024-03-17T13:48:14;78.40;;;33.70;;
67805;SDS011;54603;45.638;11.714;2024-03-17T13:50:40;80.80;;;32.50;;
67805;SDS011;54603;45.638;11.714;2024-03-17T13:53:09;89.10;;;34.30;;
67805;SDS011;54603;45.638;11.714;2024-03-17T13:55:36;79.80;;;31.50;;
67805;SDS011;54603;45.638;11.714;2024-03-17T13:58:03;68.60;;;32.60;;
67805;SDS011;54603;45.638;11.714;2024-03-17T14:00:30;65.40;;;33.50;;
67805;SDS011;54603;45.638;11.714;2024-03-17T14:02:57;64.80;;;31.10;;
67805;SDS011;54603;45.638;11.714;2024-03-17T14:05:27;68.50;;;30.40;;
67805;SDS011;54603;45.638;11.714;2024-03-17T14:07:56;71.90;;;31.70;;
67805;SDS011;54603;45.638;11.714;2024-03-17T14:10:29;74.10;;;30.00;;
67805;SDS011;54603;45.638;11.714;2024-03-17T14:12:55;71.70;;;29.80;;
67805;SDS011;54603;45.638;11.714;2024-03-17T14:15:22;66.50;;;29.60;;
67805;SDS011;54603;45.638;11.714;2024-03-17T14:17:52;71.70;;;29.00;;
67805;SDS011;54603;45.638;11.714;2024-03-17T14:20:19;73.20;;;29.60;;
67805;SDS011;54603;45.638;11.714;2024-03-17T14:22:48;66.20;;;29.80;;
67805;SDS011;54603;45.638;11.714;2024-03-17T14:25:22;64.30;;;30.40;;
67805;SDS011;54603;45.638;11.714;2024-03-17T14:27:50;67.70;;;29.60;;
67805;SDS011;54603;45.638;11.714;2024-03-17T14:30:18;68.60;;;29.80;;
67805;SDS011;54603;45.638;11.714;2024-03-17T14:32:46;49.20;;;31.10;;
67805;SDS011;54603;45.638;11.714;2024-03-17T14:35:14;54.10;;;30.80;;
67805;SDS011;54603;45.638;11.714;2024-03-17T14:37:42;60.00;;;28.90;;
67805;SDS011;54603;45.638;11.714;2024-03-17T14:40:17;49.50;;;30.10;;
67805;SDS011;54603;45.638;11.714;2024-03-17T14:43:03;50.20;;;30.60;;
67805;SDS011;54603;45.638;11.714;2024-03-17T14:45:30;60.40;;;27.90;;
67805;SDS011;54603;45.638;11.714;2024-03-17T14:47:56;54.00;;;31.60;;
67805;SDS011;54603;45.638;11.714;2024-03-17T14:50:22;52.80;;;31.30;;
67805;SDS011;54603;45.638;11.714;2024-03-17T14:52:49;60.20;;;30.40;;
67805;SDS011;54603;45.638;11.714;2024-03-17T14:55:15;69.80;;;31.20;;
67805;SDS011;54603;45.638;11.714;2024-03-17T14:57:42;67.30;;;32.50;;